sensor_id;sensor_type;location;lat;lon;timestamp;temperature;humidity
9987;DHT22;5033;46.310;11.214;2022-12-01T00:00:03;3.50;99.90
9987;DHT22;5033;46.310;11.214;2022-12-01T00:02:32;3.50;99.90
9987;DHT22;5033;46.310;11.214;2022-12-01T00:04:59;3.50;99.90
9987;DHT22;5033;46.310;11.214;2022-12-01T00:07:27;3.40;99.90
9987;DHT22;5033;46.310;11.214;2022-12-01T00:09:54;3.40;99.90
9987;DHT22;5033;46.310;11.214;2022-12-01T00:12:39;3.40;99.90
9987;DHT22;5033;46.310;11.214;2022-12-01T00:15:08;3.50;99.90
9987;DHT22;5033;46.310;11.214;2022-12-01T00:17:38;3.50;99.90
9987;DHT22;5033;46.310;11.214;2022-12-01T00:20:09;3.50;99.90
9987;DHT22;5033;46.310;11.214;2022-12-01T00:22:40;3.50;99.90
9987;DHT22;5033;46.310;11.214;2022-12-01T00:25:09;3.50;99.90
9987;DHT22;5033;46.310;11.214;2022-12-01T00:27:37;3.40;99.90
9987;DHT22;5033;46.310;11.214;2022-12-01T00:30:06;3.40;99.90
9987;DHT22;5033;46.310;11.214;2022-12-01T00:32:34;3.30;99.90
9987;DHT22;5033;46.310;11.214;2022-12-01T00:35:04;3.30;99.90
9987;DHT22;5033;46.310;11.214;2022-12-01T00:37:33;3.40;99.90
9987;DHT22;5033;46.310;11.214;2022-12-01T00:40:01;3.40;99.90
9987;DHT22;5033;46.310;11.214;2022-12-01T00:42:28;3.40;99.90
9987;DHT22;5033;46.310;11.214;2022-12-01T00:44:57;3.40;99.90
9987;DHT22;5033;46.310;11.214;2022-12-01T00:47:25;3.40;99.90
9987;DHT22;5033;46.310;11.214;2022-12-01T00:49:52;3.40;99.90
9987;DHT22;5033;46.310;11.214;2022-12-01T00:52:21;3.50;99.90
9987;DHT22;5033;46.310;11.214;2022-12-01T00:54:48;3.50;99.90
9987;DHT22;5033;46.310;11.214;2022-12-01T00:57:15;3.60;99.90
9987;DHT22;5033;46.310;11.214;2022-12-01T00:59:43;3.60;99.90
9987;DHT22;5033;46.310;11.214;2022-12-01T01:02:10;3.60;99.90
9987;DHT22;5033;46.310;11.214;2022-12-01T01:04:38;3.60;99.90
9987;DHT22;5033;46.310;11.214;2022-12-01T01:07:05;3.60;99.90
9987;DHT22;5033;46.310;11.214;2022-12-01T01:09:34;3.60;99.90
9987;DHT22;5033;46.310;11.214;2022-12-01T01:12:02;3.60;99.90
9987;DHT22;5033;46.310;11.214;2022-12-01T01:14:29;3.60;99.90
9987;DHT22;5033;46.310;11.214;2022-12-01T01:16:56;3.60;99.90
9987;DHT22;5033;46.310;11.214;2022-12-01T01:19:24;3.60;99.90
9987;DHT22;5033;46.310;11.214;2022-12-01T01:21:51;3.60;99.90
9987;DHT22;5033;46.310;11.214;2022-12-01T01:24:19;3.50;99.90
9987;DHT22;5033;46.310;11.214;2022-12-01T01:26:48;3.50;99.90
9987;DHT22;5033;46.310;11.214;2022-12-01T01:29:15;3.50;99.90
9987;DHT22;5033;46.310;11.214;2022-12-01T01:31:42;3.50;99.90
9987;DHT22;5033;46.310;11.214;2022-12-01T01:34:10;3.50;99.90
9987;DHT22;5033;46.310;11.214;2022-12-01T01:36:37;3.40;99.90
9987;DHT22;5033;46.310;11.214;2022-12-01T01:39:05;3.40;99.90
9987;DHT22;5033;46.310;11.214;2022-12-01T01:41:32;3.40;99.90
9987;DHT22;5033;46.310;11.214;2022-12-01T01:44:01;3.40;99.90
9987;DHT22;5033;46.310;11.214;2022-12-01T01:46:30;3.40;99.90
9987;DHT22;5033;46.310;11.214;2022-12-01T01:49:00;3.40;99.90
9987;DHT22;5033;46.310;11.214;2022-12-01T01:51:31;3.30;99.90
9987;DHT22;5033;46.310;11.214;2022-12-01T01:54:02;3.30;99.90
9987;DHT22;5033;46.310;11.214;2022-12-01T01:56:30;3.30;99.90
9987;DHT22;5033;46.310;11.214;2022-12-01T01:58:58;3.30;99.90
9987;DHT22;5033;46.310;11.214;2022-12-01T02:01:27;3.20;99.90
9987;DHT22;5033;46.310;11.214;2022-12-01T02:03:55;3.20;99.90
9987;DHT22;5033;46.310;11.214;2022-12-01T02:06:22;3.10;99.90
9987;DHT22;5033;46.310;11.214;2022-12-01T02:08:50;3.00;99.90
9987;DHT22;5033;46.310;11.214;2022-12-01T02:11:40;3.00;99.90
9987;DHT22;5033;46.310;11.214;2022-12-01T02:14:26;3.00;99.90
9987;DHT22;5033;46.310;11.214;2022-12-01T02:17:02;3.00;99.90
9987;DHT22;5033;46.310;11.214;2022-12-01T02:19:51;2.90;99.90
9987;DHT22;5033;46.310;11.214;2022-12-01T02:22:29;2.90;99.90
9987;DHT22;5033;46.310;11.214;2022-12-01T02:25:19;2.80;99.90
9987;DHT22;5033;46.310;11.214;2022-12-01T02:28:14;2.80;99.90
9987;DHT22;5033;46.310;11.214;2022-12-01T02:30:47;2.80;99.90
9987;DHT22;5033;46.310;11.214;2022-12-01T02:33:18;2.70;99.90
9987;DHT22;5033;46.310;11.214;2022-12-01T02:35:54;2.70;99.90
9987;DHT22;5033;46.310;11.214;2022-12-01T02:38:28;2.80;99.90
9987;DHT22;5033;46.310;11.214;2022-12-01T02:41:00;2.70;99.90
9987;DHT22;5033;46.310;11.214;2022-12-01T02:43:34;2.70;99.90
9987;DHT22;5033;46.310;11.214;2022-12-01T02:46:10;2.70;99.90
9987;DHT22;5033;46.310;11.214;2022-12-01T02:48:40;2.70;99.90
9987;DHT22;5033;46.310;11.214;2022-12-01T02:51:12;2.70;99.90
9987;DHT22;5033;46.310;11.214;2022-12-01T02:53:41;2.70;99.90
9987;DHT22;5033;46.310;11.214;2022-12-01T02:56:11;2.70;99.90
9987;DHT22;5033;46.310;11.214;2022-12-01T02:58:41;2.70;99.90
9987;DHT22;5033;46.310;11.214;2022-12-01T03:01:33;2.70;99.90
9987;DHT22;5033;46.310;11.214;2022-12-01T03:04:23;2.70;99.90
9987;DHT22;5033;46.310;11.214;2022-12-01T03:07:00;2.70;99.90
9987;DHT22;5033;46.310;11.214;2022-12-01T03:09:43;2.70;99.90
9987;DHT22;5033;46.310;11.214;2022-12-01T03:12:18;2.70;99.90
9987;DHT22;5033;46.310;11.214;2022-12-01T03:14:56;2.70;99.90
9987;DHT22;5033;46.310;11.214;2022-12-01T03:17:35;2.70;99.90
9987;DHT22;5033;46.310;11.214;2022-12-01T03:20:07;2.70;99.90
9987;DHT22;5033;46.310;11.214;2022-12-01T03:22:40;2.70;99.90
9987;DHT22;5033;46.310;11.214;2022-12-01T03:25:11;2.70;99.90
9987;DHT22;5033;46.310;11.214;2022-12-01T03:27:42;2.70;99.90
9987;DHT22;5033;46.310;11.214;2022-12-01T03:30:11;2.70;99.90
9987;DHT22;5033;46.310;11.214;2022-12-01T03:32:43;2.70;99.90
9987;DHT22;5033;46.310;11.214;2022-12-01T03:35:15;2.70;99.90
9987;DHT22;5033;46.310;11.214;2022-12-01T03:37:49;2.70;99.90
9987;DHT22;5033;46.310;11.214;2022-12-01T03:40:21;2.70;99.90
9987;DHT22;5033;46.310;11.214;2022-12-01T03:42:53;2.70;99.90
9987;DHT22;5033;46.310;11.214;2022-12-01T03:45:29;2.70;99.90
9987;DHT22;5033;46.310;11.214;2022-12-01T03:48:00;2.60;99.90
9987;DHT22;5033;46.310;11.214;2022-12-01T03:50:33;2.60;99.90
9987;DHT22;5033;46.310;11.214;2022-12-01T03:53:08;2.60;99.90
9987;DHT22;5033;46.310;11.214;2022-12-01T03:55:40;2.60;99.90
9987;DHT22;5033;46.310;11.214;2022-12-01T03:58:10;2.60;99.90
9987;DHT22;5033;46.310;11.214;2022-12-01T04:00:39;2.60;99.90
9987;DHT22;5033;46.310;11.214;2022-12-01T04:03:16;2.60;99.90
9987;DHT22;5033;46.310;11.214;2022-12-01T04:05:44;2.60;99.90
9987;DHT22;5033;46.310;11.214;2022-12-01T04:08:11;2.60;99.90
9987;DHT22;5033;46.310;11.214;2022-12-01T04:10:39;2.60;99.90
9987;DHT22;5033;46.310;11.214;2022-12-01T04:13:06;2.60;99.90
9987;DHT22;5033;46.310;11.214;2022-12-01T04:15:37;2.60;99.90
9987;DHT22;5033;46.310;11.214;2022-12-01T04:18:04;2.50;99.90
9987;DHT22;5033;46.310;11.214;2022-12-01T04:20:33;2.50;99.90
9987;DHT22;5033;46.310;11.214;2022-12-01T04:23:00;2.50;99.90
9987;DHT22;5033;46.310;11.214;2022-12-01T04:25:28;2.50;99.90
9987;DHT22;5033;46.310;11.214;2022-12-01T04:27:55;2.50;99.90
9987;DHT22;5033;46.310;11.214;2022-12-01T04:30:22;2.50;99.90
9987;DHT22;5033;46.310;11.214;2022-12-01T04:32:50;2.50;99.90
9987;DHT22;5033;46.310;11.214;2022-12-01T04:35:17;2.50;99.90
9987;DHT22;5033;46.310;11.214;2022-12-01T04:37:47;2.60;99.90
9987;DHT22;5033;46.310;11.214;2022-12-01T04:40:14;2.50;99.90
9987;DHT22;5033;46.310;11.214;2022-12-01T04:42:43;2.50;99.90
9987;DHT22;5033;46.310;11.214;2022-12-01T04:45:11;2.50;99.90
9987;DHT22;5033;46.310;11.214;2022-12-01T04:47:38;2.50;99.90
9987;DHT22;5033;46.310;11.214;2022-12-01T04:50:06;2.50;99.90
9987;DHT22;5033;46.310;11.214;2022-12-01T04:52:36;2.50;99.90
9987;DHT22;5033;46.310;11.214;2022-12-01T04:55:06;2.40;99.90
9987;DHT22;5033;46.310;11.214;2022-12-01T04:57:33;2.40;99.90
9987;DHT22;5033;46.310;11.214;2022-12-01T05:00:01;2.40;99.90
9987;DHT22;5033;46.310;11.214;2022-12-01T05:02:37;2.40;99.90
9987;DHT22;5033;46.310;11.214;2022-12-01T05:05:08;2.40;99.90
9987;DHT22;5033;46.310;11.214;2022-12-01T05:07:35;2.30;99.90
9987;DHT22;5033;46.310;11.214;2022-12-01T05:10:07;2.30;99.90
9987;DHT22;5033;46.310;11.214;2022-12-01T05:12:34;2.30;99.90
9987;DHT22;5033;46.310;11.214;2022-12-01T05:15:02;2.30;99.90
9987;DHT22;5033;46.310;11.214;2022-12-01T05:17:30;2.30;99.90
9987;DHT22;5033;46.310;11.214;2022-12-01T05:19:57;2.30;99.90
9987;DHT22;5033;46.310;11.214;2022-12-01T05:22:42;2.20;99.90
9987;DHT22;5033;46.310;11.214;2022-12-01T05:25:11;2.20;99.90
9987;DHT22;5033;46.310;11.214;2022-12-01T05:27:38;2.30;99.90
9987;DHT22;5033;46.310;11.214;2022-12-01T05:30:07;2.30;99.90
9987;DHT22;5033;46.310;11.214;2022-12-01T05:32:34;2.30;99.90
9987;DHT22;5033;46.310;11.214;2022-12-01T05:35:02;2.20;99.90
9987;DHT22;5033;46.310;11.214;2022-12-01T05:37:29;2.30;99.90
9987;DHT22;5033;46.310;11.214;2022-12-01T05:39:59;2.30;99.90
9987;DHT22;5033;46.310;11.214;2022-12-01T05:42:27;2.30;99.90
9987;DHT22;5033;46.310;11.214;2022-12-01T05:44:55;2.30;99.90
9987;DHT22;5033;46.310;11.214;2022-12-01T05:47:22;2.40;99.90
9987;DHT22;5033;46.310;11.214;2022-12-01T05:49:50;2.40;99.90
9987;DHT22;5033;46.310;11.214;2022-12-01T05:52:17;2.40;99.90
9987;DHT22;5033;46.310;11.214;2022-12-01T05:54:44;2.30;99.90
9987;DHT22;5033;46.310;11.214;2022-12-01T05:57:11;2.30;99.90
9987;DHT22;5033;46.310;11.214;2022-12-01T05:59:42;2.40;99.90
9987;DHT22;5033;46.310;11.214;2022-12-01T06:02:10;2.30;99.90
9987;DHT22;5033;46.310;11.214;2022-12-01T06:04:37;2.30;99.90
9987;DHT22;5033;46.310;11.214;2022-12-01T06:07:04;2.30;99.90
9987;DHT22;5033;46.310;11.214;2022-12-01T06:09:32;2.30;99.90
9987;DHT22;5033;46.310;11.214;2022-12-01T06:11:59;2.20;99.90
9987;DHT22;5033;46.310;11.214;2022-12-01T06:14:27;2.30;99.90
9987;DHT22;5033;46.310;11.214;2022-12-01T06:16:56;2.30;99.90
9987;DHT22;5033;46.310;11.214;2022-12-01T06:19:23;2.30;99.90
9987;DHT22;5033;46.310;11.214;2022-12-01T06:21:51;2.30;99.90
9987;DHT22;5033;46.310;11.214;2022-12-01T06:24:18;2.30;99.90
9987;DHT22;5033;46.310;11.214;2022-12-01T06:26:45;2.20;99.90
9987;DHT22;5033;46.310;11.214;2022-12-01T06:29:12;2.20;99.90
9987;DHT22;5033;46.310;11.214;2022-12-01T06:31:40;2.20;99.90
9987;DHT22;5033;46.310;11.214;2022-12-01T06:34:09;2.20;99.90
9987;DHT22;5033;46.310;11.214;2022-12-01T06:36:37;2.20;99.90
9987;DHT22;5033;46.310;11.214;2022-12-01T06:39:05;2.20;99.90
9987;DHT22;5033;46.310;11.214;2022-12-01T06:41:34;2.10;99.90
9987;DHT22;5033;46.310;11.214;2022-12-01T06:44:02;2.10;99.90
9987;DHT22;5033;46.310;11.214;2022-12-01T06:46:29;2.10;99.90
9987;DHT22;5033;46.310;11.214;2022-12-01T06:48:56;2.20;99.90
9987;DHT22;5033;46.310;11.214;2022-12-01T06:51:25;2.20;99.90
9987;DHT22;5033;46.310;11.214;2022-12-01T06:53:53;2.20;99.90
9987;DHT22;5033;46.310;11.214;2022-12-01T06:56:21;2.20;99.90
9987;DHT22;5033;46.310;11.214;2022-12-01T06:58:49;2.20;99.90
9987;DHT22;5033;46.310;11.214;2022-12-01T07:01:16;2.10;99.90
9987;DHT22;5033;46.310;11.214;2022-12-01T07:03:46;2.20;99.90
9987;DHT22;5033;46.310;11.214;2022-12-01T07:06:15;2.20;99.90
9987;DHT22;5033;46.310;11.214;2022-12-01T07:08:44;2.20;99.90
9987;DHT22;5033;46.310;11.214;2022-12-01T07:11:13;2.20;99.90
9987;DHT22;5033;46.310;11.214;2022-12-01T07:13:42;2.20;99.90
9987;DHT22;5033;46.310;11.214;2022-12-01T07:16:10;2.20;99.90
9987;DHT22;5033;46.310;11.214;2022-12-01T07:18:38;2.20;99.90
9987;DHT22;5033;46.310;11.214;2022-12-01T07:21:07;2.20;99.90
9987;DHT22;5033;46.310;11.214;2022-12-01T07:23:34;2.20;99.90
9987;DHT22;5033;46.310;11.214;2022-12-01T07:26:06;2.30;99.90
9987;DHT22;5033;46.310;11.214;2022-12-01T07:28:33;2.30;99.90
9987;DHT22;5033;46.310;11.214;2022-12-01T07:31:02;2.40;99.90
9987;DHT22;5033;46.310;11.214;2022-12-01T07:33:30;2.40;99.90
9987;DHT22;5033;46.310;11.214;2022-12-01T07:35:57;2.50;99.90
9987;DHT22;5033;46.310;11.214;2022-12-01T07:38:26;2.50;99.90
9987;DHT22;5033;46.310;11.214;2022-12-01T07:40:54;2.50;99.90
9987;DHT22;5033;46.310;11.214;2022-12-01T07:43:23;2.60;99.90
9987;DHT22;5033;46.310;11.214;2022-12-01T07:45:51;2.60;99.90
9987;DHT22;5033;46.310;11.214;2022-12-01T07:48:18;2.70;99.90
9987;DHT22;5033;46.310;11.214;2022-12-01T07:50:46;2.70;99.90
9987;DHT22;5033;46.310;11.214;2022-12-01T07:53:13;2.70;99.90
9987;DHT22;5033;46.310;11.214;2022-12-01T07:55:47;2.70;99.90
9987;DHT22;5033;46.310;11.214;2022-12-01T07:58:14;2.70;99.90
9987;DHT22;5033;46.310;11.214;2022-12-01T08:00:43;2.70;99.90
9987;DHT22;5033;46.310;11.214;2022-12-01T08:03:11;2.70;99.90
9987;DHT22;5033;46.310;11.214;2022-12-01T08:05:38;2.70;99.90
9987;DHT22;5033;46.310;11.214;2022-12-01T08:08:06;2.80;99.90
9987;DHT22;5033;46.310;11.214;2022-12-01T08:10:33;2.80;99.90
9987;DHT22;5033;46.310;11.214;2022-12-01T08:13:01;2.90;99.90
9987;DHT22;5033;46.310;11.214;2022-12-01T08:15:29;2.90;99.90
9987;DHT22;5033;46.310;11.214;2022-12-01T08:18:01;2.90;99.90
9987;DHT22;5033;46.310;11.214;2022-12-01T08:20:28;2.90;99.90
9987;DHT22;5033;46.310;11.214;2022-12-01T08:22:59;2.80;99.90
9987;DHT22;5033;46.310;11.214;2022-12-01T08:25:26;2.80;99.90
9987;DHT22;5033;46.310;11.214;2022-12-01T08:27:54;2.80;99.90
9987;DHT22;5033;46.310;11.214;2022-12-01T08:30:22;2.80;99.90
9987;DHT22;5033;46.310;11.214;2022-12-01T08:32:52;2.80;99.90
9987;DHT22;5033;46.310;11.214;2022-12-01T08:35:22;2.90;99.90
9987;DHT22;5033;46.310;11.214;2022-12-01T08:37:51;2.90;99.90
9987;DHT22;5033;46.310;11.214;2022-12-01T08:40:18;3.00;99.90
9987;DHT22;5033;46.310;11.214;2022-12-01T08:42:47;3.00;99.90
9987;DHT22;5033;46.310;11.214;2022-12-01T08:45:14;3.00;99.90
9987;DHT22;5033;46.310;11.214;2022-12-01T08:47:42;3.00;99.90
9987;DHT22;5033;46.310;11.214;2022-12-01T08:50:10;3.10;99.90
9987;DHT22;5033;46.310;11.214;2022-12-01T08:52:39;3.20;99.90
9987;DHT22;5033;46.310;11.214;2022-12-01T08:55:07;3.30;99.90
9987;DHT22;5033;46.310;11.214;2022-12-01T08:57:35;3.90;99.90
9987;DHT22;5033;46.310;11.214;2022-12-01T09:00:03;4.80;99.90
9987;DHT22;5033;46.310;11.214;2022-12-01T09:02:31;5.80;99.90
9987;DHT22;5033;46.310;11.214;2022-12-01T09:04:58;7.30;99.90
9987;DHT22;5033;46.310;11.214;2022-12-01T09:07:28;9.10;99.90
9987;DHT22;5033;46.310;11.214;2022-12-01T09:09:58;11.00;99.90
9987;DHT22;5033;46.310;11.214;2022-12-01T09:12:27;12.80;99.90
9987;DHT22;5033;46.310;11.214;2022-12-01T09:14:55;14.40;99.90
9987;DHT22;5033;46.310;11.214;2022-12-01T09:17:22;15.70;99.90
9987;DHT22;5033;46.310;11.214;2022-12-01T09:19:50;16.70;99.90
9987;DHT22;5033;46.310;11.214;2022-12-01T09:22:18;17.60;99.90
9987;DHT22;5033;46.310;11.214;2022-12-01T09:24:46;18.60;99.90
9987;DHT22;5033;46.310;11.214;2022-12-01T09:27:15;19.00;99.90
9987;DHT22;5033;46.310;11.214;2022-12-01T09:29:42;19.40;99.90
9987;DHT22;5033;46.310;11.214;2022-12-01T09:32:10;19.60;99.90
9987;DHT22;5033;46.310;11.214;2022-12-01T09:34:37;18.20;99.90
9987;DHT22;5033;46.310;11.214;2022-12-01T09:37:05;18.00;99.90
9987;DHT22;5033;46.310;11.214;2022-12-01T09:39:33;18.30;99.90
9987;DHT22;5033;46.310;11.214;2022-12-01T09:42:03;18.20;99.90
9987;DHT22;5033;46.310;11.214;2022-12-01T09:44:37;17.70;99.90
9987;DHT22;5033;46.310;11.214;2022-12-01T09:47:09;16.70;99.90
9987;DHT22;5033;46.310;11.214;2022-12-01T09:49:48;15.60;99.90
9987;DHT22;5033;46.310;11.214;2022-12-01T09:52:20;14.60;99.90
9987;DHT22;5033;46.310;11.214;2022-12-01T09:54:48;13.70;99.90
9987;DHT22;5033;46.310;11.214;2022-12-01T09:57:25;13.10;99.90
9987;DHT22;5033;46.310;11.214;2022-12-01T09:59:55;12.80;99.90
9987;DHT22;5033;46.310;11.214;2022-12-01T10:02:30;12.60;99.90
9987;DHT22;5033;46.310;11.214;2022-12-01T10:05:02;12.40;99.90
9987;DHT22;5033;46.310;11.214;2022-12-01T10:07:33;12.40;99.90
9987;DHT22;5033;46.310;11.214;2022-12-01T10:10:05;12.40;99.90
9987;DHT22;5033;46.310;11.214;2022-12-01T10:12:34;12.60;99.90
9987;DHT22;5033;46.310;11.214;2022-12-01T10:15:18;12.70;99.90
9987;DHT22;5033;46.310;11.214;2022-12-01T10:17:58;12.60;99.90
9987;DHT22;5033;46.310;11.214;2022-12-01T10:20:30;12.60;99.90
9987;DHT22;5033;46.310;11.214;2022-12-01T10:23:20;12.50;99.90
9987;DHT22;5033;46.310;11.214;2022-12-01T10:25:56;12.20;99.90
9987;DHT22;5033;46.310;11.214;2022-12-01T10:28:42;12.00;99.90
9987;DHT22;5033;46.310;11.214;2022-12-01T10:31:17;11.90;99.90
9987;DHT22;5033;46.310;11.214;2022-12-01T10:33:58;12.00;99.90
9987;DHT22;5033;46.310;11.214;2022-12-01T10:36:26;11.90;99.90
9987;DHT22;5033;46.310;11.214;2022-12-01T10:38:54;12.00;99.90
9987;DHT22;5033;46.310;11.214;2022-12-01T10:41:23;12.40;99.90
9987;DHT22;5033;46.310;11.214;2022-12-01T10:43:55;12.70;99.90
9987;DHT22;5033;46.310;11.214;2022-12-01T10:46:36;12.90;99.90
9987;DHT22;5033;46.310;11.214;2022-12-01T10:49:08;12.90;99.90
9987;DHT22;5033;46.310;11.214;2022-12-01T10:51:48;12.80;99.90
9987;DHT22;5033;46.310;11.214;2022-12-01T10:54:16;12.30;99.90
9987;DHT22;5033;46.310;11.214;2022-12-01T10:56:46;12.00;99.90
9987;DHT22;5033;46.310;11.214;2022-12-01T10:59:29;11.90;99.90
9987;DHT22;5033;46.310;11.214;2022-12-01T11:02:16;11.70;99.90
9987;DHT22;5033;46.310;11.214;2022-12-01T11:04:52;11.30;99.90
9987;DHT22;5033;46.310;11.214;2022-12-01T11:07:23;11.20;99.90
9987;DHT22;5033;46.310;11.214;2022-12-01T11:10:03;11.40;99.90
9987;DHT22;5033;46.310;11.214;2022-12-01T11:12:33;11.30;99.90
9987;DHT22;5033;46.310;11.214;2022-12-01T11:15:01;11.40;99.90
9987;DHT22;5033;46.310;11.214;2022-12-01T11:17:33;11.50;99.90
9987;DHT22;5033;46.310;11.214;2022-12-01T11:20:25;11.40;99.90
9987;DHT22;5033;46.310;11.214;2022-12-01T11:23:23;11.10;99.90
9987;DHT22;5033;46.310;11.214;2022-12-01T11:26:05;10.80;99.90
9987;DHT22;5033;46.310;11.214;2022-12-01T11:28:37;10.70;99.90
9987;DHT22;5033;46.310;11.214;2022-12-01T11:31:09;10.60;99.90
9987;DHT22;5033;46.310;11.214;2022-12-01T11:33:47;10.80;99.90
9987;DHT22;5033;46.310;11.214;2022-12-01T11:36:23;11.20;99.90
9987;DHT22;5033;46.310;11.214;2022-12-01T11:38:55;11.60;99.90
9987;DHT22;5033;46.310;11.214;2022-12-01T11:41:28;11.40;99.90
9987;DHT22;5033;46.310;11.214;2022-12-01T11:43:59;11.30;99.90
9987;DHT22;5033;46.310;11.214;2022-12-01T11:46:31;11.40;99.90
9987;DHT22;5033;46.310;11.214;2022-12-01T11:49:01;11.40;99.90
9987;DHT22;5033;46.310;11.214;2022-12-01T11:51:30;11.30;99.90
9987;DHT22;5033;46.310;11.214;2022-12-01T11:54:12;11.40;99.90
9987;DHT22;5033;46.310;11.214;2022-12-01T11:56:41;11.40;99.90
9987;DHT22;5033;46.310;11.214;2022-12-01T11:59:14;11.60;99.90
9987;DHT22;5033;46.310;11.214;2022-12-01T12:02:04;11.70;99.90
9987;DHT22;5033;46.310;11.214;2022-12-01T12:04:50;11.60;99.90
9987;DHT22;5033;46.310;11.214;2022-12-01T12:07:28;11.40;99.90
9987;DHT22;5033;46.310;11.214;2022-12-01T12:10:11;11.10;99.90
9987;DHT22;5033;46.310;11.214;2022-12-01T12:12:53;10.90;99.90
9987;DHT22;5033;46.310;11.214;2022-12-01T12:15:31;11.10;99.90
9987;DHT22;5033;46.310;11.214;2022-12-01T12:18:31;11.30;99.90
9987;DHT22;5033;46.310;11.214;2022-12-01T12:21:18;11.40;99.90
9987;DHT22;5033;46.310;11.214;2022-12-01T12:24:10;11.50;99.90
9987;DHT22;5033;46.310;11.214;2022-12-01T12:26:43;11.70;99.90
9987;DHT22;5033;46.310;11.214;2022-12-01T12:29:27;11.60;99.90
9987;DHT22;5033;46.310;11.214;2022-12-01T12:32:11;11.80;99.90
9987;DHT22;5033;46.310;11.214;2022-12-01T12:34:49;11.90;99.90
9987;DHT22;5033;46.310;11.214;2022-12-01T12:37:26;11.60;99.90
9987;DHT22;5033;46.310;11.214;2022-12-01T12:40:19;11.40;99.90
9987;DHT22;5033;46.310;11.214;2022-12-01T12:42:55;11.40;99.90
9987;DHT22;5033;46.310;11.214;2022-12-01T12:45:48;11.70;99.90
9987;DHT22;5033;46.310;11.214;2022-12-01T12:48:23;11.90;99.90
9987;DHT22;5033;46.310;11.214;2022-12-01T12:51:00;11.90;99.90
9987;DHT22;5033;46.310;11.214;2022-12-01T12:53:45;11.90;99.90
9987;DHT22;5033;46.310;11.214;2022-12-01T12:56:16;11.80;99.90
9987;DHT22;5033;46.310;11.214;2022-12-01T12:58:53;11.80;99.90
9987;DHT22;5033;46.310;11.214;2022-12-01T13:01:26;11.80;99.90
9987;DHT22;5033;46.310;11.214;2022-12-01T13:03:58;11.70;99.90
9987;DHT22;5033;46.310;11.214;2022-12-01T13:06:31;11.40;99.90
9987;DHT22;5033;46.310;11.214;2022-12-01T13:09:06;11.30;99.90
9987;DHT22;5033;46.310;11.214;2022-12-01T13:11:38;11.30;99.90
9987;DHT22;5033;46.310;11.214;2022-12-01T13:14:15;11.00;99.90
9987;DHT22;5033;46.310;11.214;2022-12-01T13:16:46;10.70;99.90
9987;DHT22;5033;46.310;11.214;2022-12-01T13:19:17;10.50;99.90
9987;DHT22;5033;46.310;11.214;2022-12-01T13:21:48;10.40;99.90
9987;DHT22;5033;46.310;11.214;2022-12-01T13:24:20;10.50;99.90
9987;DHT22;5033;46.310;11.214;2022-12-01T13:26:51;10.40;99.90
9987;DHT22;5033;46.310;11.214;2022-12-01T13:29:23;10.30;99.90
9987;DHT22;5033;46.310;11.214;2022-12-01T13:31:52;10.40;99.90
9987;DHT22;5033;46.310;11.214;2022-12-01T13:34:25;10.40;99.90
9987;DHT22;5033;46.310;11.214;2022-12-01T13:36:54;10.30;99.90
9987;DHT22;5033;46.310;11.214;2022-12-01T13:39:25;10.40;99.90
9987;DHT22;5033;46.310;11.214;2022-12-01T13:42:02;10.40;99.90
9987;DHT22;5033;46.310;11.214;2022-12-01T13:44:36;10.40;99.90
9987;DHT22;5033;46.310;11.214;2022-12-01T13:47:37;10.50;99.90
9987;DHT22;5033;46.310;11.214;2022-12-01T13:53:12;10.20;99.90
9987;DHT22;5033;46.310;11.214;2022-12-01T13:55:58;9.90;99.90
9987;DHT22;5033;46.310;11.214;2022-12-01T13:58:41;9.80;99.90
9987;DHT22;5033;46.310;11.214;2022-12-01T14:04:24;9.50;99.90
9987;DHT22;5033;46.310;11.214;2022-12-01T14:10:15;9.30;99.90
9987;DHT22;5033;46.310;11.214;2022-12-01T14:12:49;9.30;99.90
9987;DHT22;5033;46.310;11.214;2022-12-01T14:15:27;9.30;99.90
9987;DHT22;5033;46.310;11.214;2022-12-01T14:17:59;9.30;99.90
9987;DHT22;5033;46.310;11.214;2022-12-01T14:20:27;9.40;99.90
9987;DHT22;5033;46.310;11.214;2022-12-01T14:23:04;9.40;99.90
9987;DHT22;5033;46.310;11.214;2022-12-01T14:25:38;9.20;99.90
9987;DHT22;5033;46.310;11.214;2022-12-01T14:28:14;9.00;99.90
9987;DHT22;5033;46.310;11.214;2022-12-01T14:31:02;8.90;99.90
9987;DHT22;5033;46.310;11.214;2022-12-01T14:33:48;8.90;99.90
9987;DHT22;5033;46.310;11.214;2022-12-01T14:36:33;8.80;99.90
9987;DHT22;5033;46.310;11.214;2022-12-01T14:39:07;8.70;99.90
9987;DHT22;5033;46.310;11.214;2022-12-01T14:41:41;8.60;99.90
9987;DHT22;5033;46.310;11.214;2022-12-01T14:44:18;8.60;99.90
9987;DHT22;5033;46.310;11.214;2022-12-01T14:46:51;8.50;99.90
9987;DHT22;5033;46.310;11.214;2022-12-01T14:49:22;8.40;99.90
9987;DHT22;5033;46.310;11.214;2022-12-01T14:51:55;8.40;99.90
9987;DHT22;5033;46.310;11.214;2022-12-01T14:54:26;8.30;99.90
9987;DHT22;5033;46.310;11.214;2022-12-01T14:56:57;8.20;99.90
9987;DHT22;5033;46.310;11.214;2022-12-01T14:59:28;8.10;99.90
9987;DHT22;5033;46.310;11.214;2022-12-01T15:02:01;8.00;99.90
9987;DHT22;5033;46.310;11.214;2022-12-01T15:04:34;7.90;99.90
9987;DHT22;5033;46.310;11.214;2022-12-01T15:07:02;7.80;99.90
9987;DHT22;5033;46.310;11.214;2022-12-01T15:09:29;7.70;99.90
9987;DHT22;5033;46.310;11.214;2022-12-01T15:11:58;7.60;99.90
9987;DHT22;5033;46.310;11.214;2022-12-01T15:14:33;7.60;99.90
9987;DHT22;5033;46.310;11.214;2022-12-01T15:17:02;7.50;99.90
9987;DHT22;5033;46.310;11.214;2022-12-01T15:19:32;7.40;99.90
9987;DHT22;5033;46.310;11.214;2022-12-01T15:22:05;7.40;99.90
9987;DHT22;5033;46.310;11.214;2022-12-01T15:24:33;7.30;99.90
9987;DHT22;5033;46.310;11.214;2022-12-01T15:27:01;7.30;99.90
9987;DHT22;5033;46.310;11.214;2022-12-01T15:29:32;7.20;99.90
9987;DHT22;5033;46.310;11.214;2022-12-01T15:32:03;7.10;99.90
9987;DHT22;5033;46.310;11.214;2022-12-01T15:34:37;7.10;99.90
9987;DHT22;5033;46.310;11.214;2022-12-01T15:37:10;7.10;99.90
9987;DHT22;5033;46.310;11.214;2022-12-01T15:39:42;7.10;99.90
9987;DHT22;5033;46.310;11.214;2022-12-01T15:42:20;7.00;99.90
9987;DHT22;5033;46.310;11.214;2022-12-01T15:44:57;7.00;99.90
9987;DHT22;5033;46.310;11.214;2022-12-01T15:47:29;6.90;99.90
9987;DHT22;5033;46.310;11.214;2022-12-01T15:49:58;6.90;99.90
9987;DHT22;5033;46.310;11.214;2022-12-01T15:52:25;6.80;99.90
9987;DHT22;5033;46.310;11.214;2022-12-01T15:54:53;6.80;99.90
9987;DHT22;5033;46.310;11.214;2022-12-01T15:57:21;6.80;99.90
9987;DHT22;5033;46.310;11.214;2022-12-01T15:59:52;6.80;99.90
9987;DHT22;5033;46.310;11.214;2022-12-01T16:02:34;6.70;99.90
9987;DHT22;5033;46.310;11.214;2022-12-01T16:05:05;6.70;99.90
9987;DHT22;5033;46.310;11.214;2022-12-01T16:07:41;6.70;99.90
9987;DHT22;5033;46.310;11.214;2022-12-01T16:10:24;6.60;99.90
9987;DHT22;5033;46.310;11.214;2022-12-01T16:15:58;6.50;99.90
9987;DHT22;5033;46.310;11.214;2022-12-01T16:18:33;6.50;99.90
9987;DHT22;5033;46.310;11.214;2022-12-01T16:21:04;6.40;99.90
9987;DHT22;5033;46.310;11.214;2022-12-01T16:23:32;6.30;99.90
9987;DHT22;5033;46.310;11.214;2022-12-01T16:26:06;6.20;99.90
9987;DHT22;5033;46.310;11.214;2022-12-01T16:28:34;6.20;99.90
9987;DHT22;5033;46.310;11.214;2022-12-01T16:31:03;6.20;99.90
9987;DHT22;5033;46.310;11.214;2022-12-01T16:33:36;6.10;99.90
9987;DHT22;5033;46.310;11.214;2022-12-01T16:36:05;6.10;99.90
9987;DHT22;5033;46.310;11.214;2022-12-01T16:38:32;6.10;99.90